Time;durP1;ratioP1;P1;durP2;ratioP2;P2;SDS_P1;SDS_P2;PMS_P1;PMS_P2;Temp;Humidity;BMP_temperature;BMP_pressure;BME280_temperature;BME280_humidity;BME280_pressure;Samples;Min_cycle;Max_cycle;Signal;HPM_P1;HPM_P2
2023/03/22 00:01:23;;;;;;;8.48;5.20;;;9.60;99.90;;;9.07;100.00;97444.44;5045462;28;20063;-76
2023/03/22 00:03:51;;;;;;;7.72;4.75;;;9.70;99.90;;;9.07;100.00;97440.09;5060359;28;20040;-75
2023/03/22 00:06:19;;;;;;;8.65;5.05;;;9.60;99.90;;;9.04;100.00;97436.81;5045019;28;20059;-75
2023/03/22 00:08:50;;;;;;;8.60;5.00;;;9.60;99.90;;;9.04;100.00;97444.56;5045270;28;20052;-75
2023/03/22 00:11:20;;;;;;;11.85;5.18;;;9.60;99.90;;;9.07;100.00;97441.84;5055760;28;20053;-75
2023/03/22 00:13:47;;;;;;;11.27;5.07;;;9.60;99.90;;;9.07;100.00;97440.09;5057097;28;20045;-75
2023/03/22 00:16:14;;;;;;;10.40;5.22;;;9.60;99.90;;;8.99;100.00;97435.22;5039082;28;20074;-75
2023/03/22 00:18:42;;;;;;;8.50;5.13;;;9.50;99.90;;;9.06;100.00;97430.66;5044743;28;20525;-75
2023/03/22 00:21:15;;;;;;;8.95;5.20;;;9.60;99.90;;;8.99;100.00;97434.41;5038690;28;20523;-75
2023/03/22 00:23:43;;;;;;;11.05;6.43;;;9.60;99.90;;;9.01;100.00;97422.25;5042658;28;20069;-75
2023/03/22 00:26:12;;;;;;;9.70;5.18;;;9.60;99.90;;;8.98;100.00;97415.41;5040177;28;20041;-75
2023/03/22 00:28:41;;;;;;;8.50;5.35;;;9.60;99.90;;;8.97;100.00;97418.06;5042850;28;20532;-75
2023/03/22 00:31:09;;;;;;;6.72;4.38;;;9.60;99.90;;;9.03;100.00;97417.81;5052569;28;20145;-76
2023/03/22 00:33:37;;;;;;;10.27;4.90;;;9.70;99.90;;;9.14;100.00;97422.59;5028340;28;20046;-75
2023/03/22 00:36:08;;;;;;;8.57;5.00;;;9.60;99.90;;;9.12;100.00;97407.13;5022727;28;20540;-75
2023/03/22 00:38:38;;;;;;;7.68;5.28;;;9.60;99.90;;;8.97;100.00;97411.16;5044658;28;20049;-75
2023/03/22 00:41:18;;;;;;;8.80;4.63;;;9.60;99.90;;;9.05;100.00;97408.25;5041737;28;20120;-75
2023/03/22 00:43:47;;;;;;;9.00;5.22;;;9.60;99.90;;;9.06;100.00;97402.19;5028943;28;20049;-75
2023/03/22 00:46:16;;;;;;;7.22;4.85;;;9.60;99.90;;;9.03;100.00;97402.28;5042317;28;20044;-75
2023/03/22 00:48:43;;;;;;;11.30;5.03;;;9.70;99.90;;;9.09;100.00;97407.22;5041321;28;20056;-75
2023/03/22 00:51:12;;;;;;;9.73;5.10;;;9.60;99.90;;;9.09;100.00;97399.47;5044519;28;20056;-75
2023/03/22 00:53:40;;;;;;;10.00;5.07;;;9.60;99.90;;;9.04;100.00;97403.16;5044367;28;20072;-75
2023/03/22 00:56:14;;;;;;;11.45;5.93;;;9.60;99.90;;;9.01;100.00;97393.75;5044583;28;20490;-75
2023/03/22 00:58:42;;;;;;;9.13;5.25;;;9.60;99.90;;;8.99;100.00;97386.03;5042336;28;20053;-75
2023/03/22 01:01:13;;;;;;;8.88;4.85;;;9.60;99.90;;;9.00;100.00;97386.88;5055066;28;20056;-75
2023/03/22 01:03:42;;;;;;;8.30;5.35;;;9.60;99.90;;;8.94;100.00;97387.13;5043428;28;20046;-75
2023/03/22 01:06:10;;;;;;;12.32;5.85;;;9.60;99.90;;;8.96;100.00;97387.91;5040942;28;20486;-75
2023/03/22 01:08:37;;;;;;;11.55;5.72;;;9.60;99.90;;;8.99;100.00;97378.28;5054722;28;20573;-75
2023/03/22 01:11:06;;;;;;;13.45;6.32;;;9.60;99.90;;;9.02;100.00;97382.50;5025113;28;20067;-75
2023/03/22 01:13:40;;;;;;;13.70;5.95;;;9.60;99.90;;;9.17;100.00;97381.06;5039562;28;20507;-75
2023/03/22 01:16:09;;;;;;;8.18;5.13;;;9.60;99.90;;;9.10;100.00;97377.88;5041468;28;20136;-75
2023/03/22 01:18:36;;;;;;;10.02;5.07;;;9.60;99.90;;;9.28;100.00;97367.66;5055105;28;20524;-75
2023/03/22 01:21:05;;;;;;;11.77;4.95;;;9.60;99.90;;;9.21;100.00;97367.06;5053951;28;20048;-75
2023/03/22 01:23:32;;;;;;;10.18;5.38;;;9.60;99.90;;;9.17;100.00;97373.28;5025478;28;20072;-75
2023/03/22 01:26:00;;;;;;;8.98;4.95;;;9.60;99.90;;;9.31;100.00;97370.97;5040579;28;20375;-75
2023/03/22 01:28:28;;;;;;;9.88;5.47;;;9.60;99.90;;;9.21;100.00;97359.28;5045092;28;20139;-75
2023/03/22 01:31:00;;;;;;;8.27;6.28;;;9.60;99.90;;;9.18;100.00;97364.59;5040436;28;20053;-75
2023/03/22 01:33:27;;;;;;;10.60;5.25;;;9.70;99.90;;;9.24;100.00;97358.31;5042914;28;20045;-75
2023/03/22 01:35:54;;;;;;;10.07;5.78;;;9.70;99.90;;;9.24;100.00;97351.41;5043351;28;20058;-75
2023/03/22 01:38:21;;;;;;;9.50;5.63;;;9.80;99.90;;;9.19;100.00;97350.72;5038955;28;20052;-75
2023/03/22 01:40:49;;;;;;;8.50;5.55;;;9.70;99.90;;;9.26;100.00;97353.91;5058097;28;20048;-76
2023/03/22 01:43:17;;;;;;;8.52;5.10;;;9.70;99.90;;;9.19;100.00;97351.59;5039435;28;20855;-75
2023/03/22 01:45:49;;;;;;;10.68;5.57;;;9.70;99.90;;;9.17;100.00;97355.16;5042294;28;20052;-75
2023/03/22 01:48:30;;;;;;;9.57;5.83;;;9.70;99.90;;;9.21;100.00;97356.69;5042524;28;20164;-75
2023/03/22 01:51:08;;;;;;;10.73;5.15;;;9.70;99.90;;;9.23;100.00;97354.06;5042839;28;20386;-75
2023/03/22 01:53:42;;;;;;;7.80;5.38;;;9.80;99.90;;;9.14;100.00;97358.69;5038786;28;20049;-75
2023/03/22 01:56:11;;;;;;;9.85;5.18;;;9.80;99.90;;;9.29;100.00;97353.81;5040255;28;20057;-75
2023/03/22 01:58:39;;;;;;;7.80;5.45;;;9.80;99.90;;;9.23;100.00;97362.66;5038952;28;20049;-75
2023/03/22 02:01:09;;;;;;;8.75;5.60;;;9.70;99.90;;;9.32;100.00;97358.84;5041304;28;20474;-75
2023/03/22 02:03:58;;;;;;;8.98;5.75;;;9.70;99.90;;;9.23;100.00;97341.09;5051067;28;20045;-75
2023/03/22 02:06:28;;;;;;;12.57;5.55;;;9.70;99.90;;;9.20;100.00;97340.31;5026123;28;20221;-75
2023/03/22 02:08:57;;;;;;;11.02;5.85;;;9.80;99.90;;;9.25;100.00;97345.31;5042829;28;20135;-75
2023/03/22 02:11:51;;;;;;;8.32;6.28;;;9.80;99.90;;;9.20;100.00;97339.47;5050914;28;20081;-74
2023/03/22 02:14:52;;;;;;;11.15;5.65;;;9.70;99.90;;;9.22;100.00;97345.44;5035613;28;20054;-75
2023/03/22 02:17:27;;;;;;;10.80;6.00;;;9.70;99.90;;;9.10;100.00;97339.03;5036737;28;20049;-75
2023/03/22 02:20:38;;;;;;;13.80;5.32;;;9.70;99.90;;;9.19;100.00;97335.19;5050092;28;20052;-74
2023/03/22 02:23:48;;;;;;;9.60;5.22;;;9.70;99.90;;;8.97;100.00;97338.66;5040869;28;20056;-75
2023/03/22 02:26:52;;;;;;;9.23;5.55;;;9.70;99.90;;;8.94;100.00;97337.94;5042006;28;20435;-75
2023/03/22 02:29:44;;;;;;;10.65;4.95;;;9.60;99.90;;;9.02;100.00;97342.81;5040768;28;20057;-75
2023/03/22 02:32:44;;;;;;;8.95;5.65;;;9.60;99.90;;;8.97;100.00;97341.25;5041220;28;20518;-75
2023/03/22 02:35:45;;;;;;;7.88;5.35;;;9.50;99.90;;;9.02;100.00;97340.22;5042282;28;20044;-75
2023/03/22 02:38:44;;;;;;;10.52;5.85;;;9.50;99.90;;;8.92;100.00;97342.34;5052000;28;20898;-75
2023/03/22 02:41:43;;;;;;;11.13;6.50;;;9.50;99.90;;;8.98;100.00;97342.09;5036523;28;20090;-75
2023/03/22 02:44:39;;;;;;;10.27;5.70;;;9.50;99.90;;;9.07;100.00;97343.47;5042990;28;20059;-75
2023/03/22 02:47:37;;;;;;;10.05;5.93;;;9.50;99.90;;;9.00;100.00;97335.94;5045754;28;20908;-75
2023/03/22 02:50:18;;;;;;;13.15;5.95;;;9.60;99.90;;;9.06;100.00;97334.88;5045459;28;20063;-74
2023/03/22 02:52:50;;;;;;;10.07;5.43;;;9.60;99.90;;;8.95;100.00;97331.88;5045111;28;20061;-74
2023/03/22 02:55:30;;;;;;;12.52;5.40;;;9.60;99.90;;;8.98;100.00;97334.31;5027723;28;20072;-75
2023/03/22 02:58:09;;;;;;;10.98;5.68;;;9.60;99.90;;;9.02;100.00;97342.81;5043805;28;20040;-75
2023/03/22 03:00:37;;;;;;;9.45;5.82;;;9.60;99.90;;;9.11;100.00;97339.84;5055584;28;20128;-74
2023/03/22 03:03:11;;;;;;;9.05;5.57;;;9.60;99.90;;;9.00;100.00;97332.53;5026899;28;20523;-74
2023/03/22 03:05:52;;;;;;;8.55;5.45;;;9.50;99.90;;;9.01;100.00;97331.63;5044697;28;20069;-74
2023/03/22 03:08:22;;;;;;;10.70;4.88;;;9.60;99.90;;;8.96;100.00;97328.34;5046503;28;20056;-74
2023/03/22 03:10:51;;;;;;;8.75;5.70;;;9.60;99.90;;;8.99;100.00;97336.03;5047156;28;20676;-74
2023/03/22 03:13:18;;;;;;;10.38;5.60;;;9.60;99.90;;;8.94;100.00;97331.03;5059287;28;20065;-75
2023/03/22 03:15:56;;;;;;;9.90;5.90;;;9.50;99.90;;;8.89;100.00;97327.75;5041010;28;20495;-74
2023/03/22 03:18:51;;;;;;;11.52;5.63;;;9.50;99.90;;;9.00;100.00;97335.09;5030285;28;20041;-74
2023/03/22 03:21:56;;;;;;;11.93;5.53;;;9.40;99.90;;;8.87;100.00;97324.41;5055624;28;20053;-74
2023/03/22 03:24:44;;;;;;;11.32;5.35;;;9.40;99.90;;;8.76;100.00;97330.00;5028045;28;20053;-74
2023/03/22 03:27:22;;;;;;;8.63;4.90;;;9.40;99.90;;;8.73;100.00;97324.94;5045830;28;20037;-74
2023/03/22 03:30:22;;;;;;;12.27;5.57;;;9.30;99.90;;;8.71;100.00;97324.19;5040710;28;20048;-74
2023/03/22 03:33:03;;;;;;;15.32;6.43;;;9.30;99.90;;;8.59;100.00;97322.06;5029510;28;20049;-74
2023/03/22 03:35:37;;;;;;;11.95;5.55;;;9.30;99.90;;;8.51;100.00;97311.19;5055214;28;20053;-74
2023/03/22 03:38:23;;;;;;;16.00;5.70;;;9.20;99.90;;;8.50;100.00;97317.22;5027158;28;20068;-75
2023/03/22 03:41:00;;;;;;;13.35;5.72;;;9.20;99.90;;;8.47;100.00;97315.59;5055402;28;20053;-74
2023/03/22 03:43:27;;;;;;;10.18;5.53;;;9.20;99.90;;;8.42;100.00;97306.34;5040697;28;20076;-74
2023/03/22 03:45:55;;;;;;;7.45;4.75;;;9.10;99.90;;;8.35;100.00;97310.88;5045755;28;20040;-74
2023/03/22 03:48:28;;;;;;;11.80;6.10;;;9.10;99.90;;;8.31;100.00;97306.72;5042980;28;20045;-74
2023/03/22 03:50:56;;;;;;;;;;;9.00;99.90;;;8.26;100.00;97316.41;5028015;28;20057;-75
2023/03/22 03:53:24;;;;;;;11.32;6.10;;;9.00;99.90;;;8.23;100.00;97306.16;5043631;28;19935;-74
2023/03/22 03:55:50;;;;;;;12.07;5.85;;;8.90;99.90;;;8.22;100.00;97307.06;5043705;28;20395;-75
2023/03/22 03:58:18;;;;;;;10.55;5.47;;;8.90;99.90;;;8.17;100.00;97312.41;5044732;28;20045;-74
2023/03/22 04:00:49;;;;;;;9.18;5.18;;;8.90;99.90;;;8.15;100.00;97307.28;5051140;28;20132;-74
2023/03/22 04:03:17;;;;;;;13.10;5.93;;;8.80;99.90;;;8.13;100.00;97309.09;5027835;28;20519;-74
2023/03/22 04:05:44;;;;;;;11.23;6.43;;;8.80;99.90;;;8.11;100.00;97307.47;5045665;28;20068;-74
2023/03/22 04:08:11;;;;;;;15.45;5.40;;;8.80;99.90;;;7.94;100.00;97305.50;5051984;28;20236;-74
2023/03/22 04:10:39;;;;;;;11.20;5.65;;;8.80;99.90;;;7.94;100.00;97303.75;5040501;28;20057;-74
2023/03/22 04:13:06;;;;;;;10.90;5.97;;;8.70;99.90;;;7.93;100.00;97314.97;5042772;28;20056;-76
2023/03/22 04:15:33;;;;;;;13.73;5.88;;;8.60;99.90;;;7.96;100.00;97312.31;5040811;28;21038;-76
2023/03/22 04:18:00;;;;;;;9.73;5.75;;;8.60;99.90;;;7.93;100.00;97311.56;5044868;28;20426;-76
2023/03/22 04:20:28;;;;;;;13.35;6.03;;;8.60;99.90;;;7.80;100.00;97315.47;5042175;28;20053;-77
2023/03/22 04:22:56;;;;;;;12.23;5.45;;;8.50;99.90;;;7.75;100.00;97305.31;5041154;28;20049;-76
2023/03/22 04:25:28;;;;;;;11.40;5.97;;;8.50;99.90;;;7.75;100.00;97313.94;5044439;28;20084;-75
2023/03/22 04:27:55;;;;;;;11.35;6.05;;;8.40;99.90;;;7.74;100.00;97312.22;5042757;28;20125;-76
2023/03/22 04:30:23;;;;;;;10.88;6.20;;;8.40;99.90;;;7.78;100.00;97312.09;5038834;28;20049;-76
2023/03/22 04:32:50;;;;;;;13.32;6.05;;;8.40;99.90;;;7.74;100.00;97301.06;5027016;28;20048;-76
2023/03/22 04:35:18;;;;;;;10.75;6.25;;;8.40;99.90;;;7.78;100.00;97309.53;5040941;28;20053;-76
2023/03/22 04:37:45;;;;;;;12.02;6.00;;;8.30;99.90;;;7.77;100.00;97303.50;5056742;28;20063;-76
2023/03/22 04:40:15;;;;;;;15.68;6.45;;;8.40;99.90;;;7.71;100.00;97302.00;5057478;28;20455;-76
2023/03/22 04:42:44;;;;;;;10.10;6.38;;;8.40;99.90;;;7.70;100.00;97300.31;5043913;28;20044;-77
2023/03/22 04:45:12;;;;;;;10.73;5.80;;;8.40;99.90;;;7.70;100.00;97310.63;5041107;28;20164;-76
2023/03/22 04:47:39;;;;;;;12.15;5.80;;;8.30;99.90;;;7.81;100.00;97315.44;5038215;28;20037;-76
2023/03/22 04:50:08;;;;;;;15.07;6.93;;;8.30;99.90;;;7.65;100.00;97307.38;5038304;28;20205;-76
2023/03/22 04:52:35;;;;;;;11.75;6.22;;;8.30;99.90;;;7.68;100.00;97317.59;5039865;28;20803;-76
2023/03/22 04:55:03;;;;;;;10.25;5.40;;;8.30;99.90;;;7.70;100.00;97320.13;5039364;28;20049;-76
2023/03/22 04:57:30;;;;;;;10.35;5.32;;;8.20;99.90;;;7.65;100.00;97320.28;5039102;28;20061;-76
2023/03/22 04:59:57;;;;;;;14.25;5.82;;;8.20;99.90;;;7.62;100.00;97322.13;5027648;28;20123;-76
2023/03/22 05:02:24;;;;;;;12.02;5.97;;;8.20;99.90;;;7.61;100.00;97323.03;5037894;28;20052;-76
2023/03/22 05:04:51;;;;;;;13.38;6.07;;;8.20;99.90;;;7.52;100.00;97319.03;5041464;28;20486;-76
2023/03/22 05:07:21;;;;;;;14.98;6.78;;;8.20;99.90;;;7.52;100.00;97326.78;5041448;28;20057;-76
2023/03/22 05:09:49;;;;;;;13.35;6.18;;;8.20;99.90;;;7.64;100.00;97330.66;5055365;28;20045;-75
2023/03/22 05:12:16;;;;;;;13.32;5.95;;;8.10;99.90;;;7.58;100.00;97328.31;5053757;28;20056;-76
2023/03/22 05:14:44;;;;;;;14.23;6.10;;;8.20;99.90;;;7.63;100.00;97327.25;5039412;28;20055;-75
2023/03/22 05:17:11;;;;;;;9.52;5.57;;;8.20;99.90;;;7.53;100.00;97326.75;5040050;28;20049;-76
2023/03/22 05:19:39;;;;;;;11.55;5.93;;;8.20;99.90;;;7.48;100.00;97318.31;5041476;28;20054;-76
2023/03/22 05:22:06;;;;;;;14.57;6.03;;;8.20;99.90;;;7.57;100.00;97326.63;5039617;28;20503;-76
2023/03/22 05:24:33;;;;;;;17.02;5.75;;;8.10;99.90;;;7.50;100.00;97326.84;5042596;28;20424;-76
2023/03/22 05:27:02;;;;;;;13.15;5.93;;;8.10;99.90;;;7.47;100.00;97320.94;5041290;28;20541;-76
2023/03/22 05:29:35;;;;;;;12.52;6.43;;;8.10;99.90;;;7.54;100.00;97333.56;5051215;28;20132;-76
2023/03/22 05:32:03;;;;;;;11.50;6.13;;;8.00;99.90;;;7.48;100.00;97330.34;5044531;28;20399;-76
2023/03/22 05:34:34;;;;;;;15.18;6.68;;;8.00;99.90;;;7.40;100.00;97328.03;5038138;28;20128;-76
2023/03/22 05:37:02;;;;;;;11.65;6.18;;;8.00;99.90;;;7.43;100.00;97327.94;5042416;28;20047;-76
2023/03/22 05:39:29;;;;;;;14.50;5.75;;;8.00;99.90;;;7.40;100.00;97328.03;5025593;28;20143;-76
2023/03/22 05:41:56;;;;;;;11.43;6.00;;;8.10;99.90;;;7.35;100.00;97329.13;5054104;28;20048;-76
2023/03/22 05:44:23;;;;;;;10.80;5.75;;;8.10;99.90;;;7.33;100.00;97329.16;5039511;28;20068;-76
2023/03/22 05:46:50;;;;;;;14.27;5.80;;;8.10;99.90;;;7.30;100.00;97332.69;5051615;28;20037;-76
2023/03/22 05:49:18;;;;;;;12.75;5.13;;;8.00;99.90;;;7.42;100.00;97331.41;5049241;28;20052;-76
2023/03/22 05:51:45;;;;;;;13.23;5.82;;;8.10;99.90;;;7.37;100.00;97328.16;5037330;28;20076;-76
2023/03/22 05:54:12;;;;;;;13.52;7.20;;;8.00;99.90;;;7.44;100.00;97333.97;5038850;28;20052;-76
2023/03/22 05:56:39;;;;;;;13.57;6.18;;;8.00;99.90;;;7.46;100.00;97333.00;5051948;28;20410;-76
2023/03/22 05:59:07;;;;;;;14.52;7.55;;;8.00;99.90;;;7.37;100.00;97335.91;5033852;28;20059;-75
2023/03/22 06:01:34;;;;;;;12.25;6.65;;;8.10;99.90;;;7.49;100.00;97332.91;5036878;28;20055;-76
2023/03/22 06:04:01;;;;;;;14.60;7.47;;;8.10;99.90;;;7.40;100.00;97338.38;5035966;28;20037;-75
2023/03/22 06:06:28;;;;;;;11.35;5.65;;;8.10;99.90;;;7.46;100.00;97338.19;5047168;28;20785;-76
2023/03/22 06:08:56;;;;;;;9.95;4.32;;;8.10;99.90;;;7.65;100.00;97342.72;5052694;28;20411;-76
2023/03/22 06:11:41;;;;;;;9.50;6.10;;;8.10;99.90;;;7.66;100.00;97342.66;5041300;28;20044;-76
2023/03/22 06:14:09;;;;;;;14.25;5.65;;;8.30;99.90;;;7.65;100.00;97340.13;5042026;28;20574;-76
2023/03/22 06:16:36;;;;;;;9.13;5.00;;;8.30;99.90;;;7.73;100.00;97338.97;5048859;28;20503;-77
2023/03/22 06:19:03;;;;;;;11.85;5.20;;;8.30;99.90;;;7.74;100.00;97332.06;5040151;28;20134;-76
2023/03/22 06:21:33;;;;;;;7.90;4.72;;;8.30;99.90;;;7.83;100.00;97331.72;5030184;28;20129;-76
2023/03/22 06:24:00;;;;;;;12.25;5.30;;;8.30;99.90;;;7.85;100.00;97327.34;5043478;28;20051;-76
2023/03/22 06:26:27;;;;;;;10.70;5.68;;;8.40;99.90;;;7.82;100.00;97327.44;5056337;28;20156;-76
2023/03/22 06:28:54;;;;;;;8.77;4.85;;;8.40;99.90;;;7.99;100.00;97326.84;5043336;28;20041;-76
2023/03/22 06:31:21;;;;;;;10.50;4.85;;;8.40;99.90;;;7.92;100.00;97339.16;5053191;28;20053;-74
2023/03/22 06:33:49;;;;;;;13.55;5.30;;;8.40;99.90;;;8.03;100.00;97338.78;5048305;28;20075;-76
2023/03/22 06:36:16;;;;;;;7.20;3.85;;;8.50;99.90;;;8.21;100.00;97347.59;5045466;28;20447;-76
2023/03/22 06:38:43;;;;;;;9.30;4.70;;;8.50;99.90;;;8.08;100.00;97331.69;5044652;28;20053;-76
2023/03/22 06:41:11;;;;;;;10.32;5.13;;;8.60;99.90;;;8.11;100.00;97328.13;5046188;28;20074;-76
2023/03/22 06:43:38;;;;;;;8.77;4.25;;;8.60;99.90;;;8.26;100.00;97325.00;5045063;28;20085;-76
2023/03/22 06:46:08;;;;;;;8.95;4.22;;;8.70;99.90;;;8.32;100.00;97334.25;5058912;28;20047;-76
2023/03/22 06:48:35;;;;;;;10.55;4.50;;;8.70;99.90;;;8.38;100.00;97337.47;5044155;28;20049;-75
2023/03/22 06:51:03;;;;;;;9.20;4.63;;;8.70;99.90;;;8.30;100.00;97333.47;5043071;28;20049;-76
2023/03/22 06:53:30;;;;;;;8.68;4.15;;;8.80;99.90;;;8.45;100.00;97339.84;5044157;28;20124;-76
2023/03/22 06:55:58;;;;;;;9.90;3.88;;;8.80;99.90;;;8.37;100.00;97329.78;5042771;28;20059;-76
2023/03/22 06:58:25;;;;;;;9.70;4.47;;;8.90;99.90;;;8.47;100.00;97338.06;5043446;28;20553;-76
2023/03/22 07:00:55;;;;;;;10.13;3.90;;;9.00;99.90;;;8.36;100.00;97321.16;5037891;28;20507;-76
2023/03/22 07:03:23;;;;;;;8.25;4.13;;;8.90;99.90;;;8.56;100.00;97325.59;5031850;28;20525;-76
2023/03/22 07:05:50;;;;;;;9.57;3.88;;;9.00;99.90;;;8.66;100.00;97322.66;5046388;28;20047;-76
2023/03/22 07:08:18;;;;;;;8.77;3.35;;;9.10;99.90;;;8.72;100.00;97328.44;5045567;28;20045;-76
2023/03/22 07:10:50;;;;;;;9.73;4.10;;;9.10;99.90;;;8.77;100.00;97323.09;5046199;28;20051;-76
2023/03/22 07:13:17;;;;;;;7.75;3.83;;;9.20;99.90;;;8.77;100.00;97318.75;5045974;28;20064;-75
2023/03/22 07:15:44;;;;;;;10.68;3.80;;;9.20;99.90;;;8.86;100.00;97330.47;5038681;28;20450;-76
2023/03/22 07:18:11;;;;;;;11.05;3.75;;;9.20;99.90;;;8.82;100.00;97317.72;5043431;28;20130;-76
2023/03/22 07:20:40;;;;;;;7.75;3.38;;;9.30;99.90;;;8.98;100.00;97316.19;5045351;28;20510;-76
2023/03/22 07:23:09;;;;;;;11.95;4.05;;;9.30;99.90;;;8.98;100.00;97317.03;5041200;28;20045;-76
2023/03/22 07:25:38;;;;;;;9.20;3.65;;;9.40;99.90;;;9.00;100.00;97315.22;5043462;28;20045;-76
2023/03/22 07:28:06;;;;;;;9.88;3.40;;;9.50;99.90;;;9.09;100.00;97318.38;5041784;28;20785;-76
2023/03/22 07:30:36;;;;;;;8.07;3.25;;;9.50;99.90;;;9.13;100.00;97314.75;5044484;28;20123;-75
2023/03/22 07:33:05;;;;;;;10.35;3.50;;;9.40;99.90;;;9.25;100.00;97314.22;5053953;28;20053;-76
2023/03/22 07:35:34;;;;;;;8.55;3.40;;;9.50;99.90;;;9.24;100.00;97320.34;5057442;28;20056;-76
2023/03/22 07:38:03;;;;;;;6.93;2.95;;;9.50;99.90;;;9.36;100.00;97321.56;5041169;28;20073;-76
2023/03/22 07:40:30;;;;;;;7.45;3.30;;;9.60;99.90;;;9.34;100.00;97306.06;5039933;28;20495;-76
2023/03/22 07:43:00;;;;;;;12.57;2.95;;;9.70;99.90;;;9.59;100.00;97305.88;5041623;28;20139;-75
2023/03/22 07:45:27;;;;;;;6.80;2.85;;;10.00;99.90;;;9.57;100.00;97297.31;5044189;28;20053;-76
2023/03/22 07:47:54;;;;;;;6.55;3.03;;;10.00;99.90;;;9.74;100.00;97306.13;5042359;28;20072;-75
2023/03/22 07:50:23;;;;;;;6.03;3.05;;;10.10;99.90;;;9.61;100.00;97288.50;5042109;28;20053;-74
2023/03/22 07:52:50;;;;;;;7.18;3.10;;;10.20;99.90;;;9.68;100.00;97296.88;5057615;28;20051;-74
2023/03/22 07:55:18;;;;;;;8.70;3.45;;;10.20;99.90;;;9.78;100.00;97286.94;5041629;28;20523;-75
2023/03/22 07:57:45;;;;;;;5.30;2.42;;;10.20;99.90;;;9.97;100.00;97286.97;5042334;28;20051;-76
2023/03/22 08:00:14;;;;;;;7.05;2.80;;;10.30;99.90;;;10.17;100.00;97275.69;5037232;28;20132;-76
2023/03/22 08:02:44;;;;;;;7.47;2.90;;;10.50;99.90;;;10.21;100.00;97275.47;5045488;28;20438;-76
2023/03/22 08:05:11;;;;;;;5.07;2.58;;;10.60;99.90;;;10.54;100.00;97279.22;5027585;28;20046;-76
2023/03/22 08:07:38;;;;;;;8.52;2.95;;;10.60;99.90;;;10.89;100.00;97262.78;5036834;28;20045;-76
2023/03/22 08:10:06;;;;;;;5.85;2.45;;;11.10;99.90;;;11.88;100.00;97245.66;5042678;28;20055;-76
2023/03/22 08:12:33;;;;;;;5.20;2.08;;;11.80;99.90;;;12.02;100.00;97231.91;5040875;28;20068;-76
2023/03/22 08:15:01;;;;;;;5.90;2.30;;;12.30;99.90;;;11.68;100.00;97238.88;5044367;28;20140;-76
2023/03/22 08:17:29;;;;;;;6.13;2.38;;;12.30;99.90;;;11.12;100.00;97240.03;5039586;28;20056;-76
2023/03/22 08:19:56;;;;;;;5.25;2.25;;;12.00;99.90;;;11.07;100.00;97239.41;5042837;28;20056;-76
2023/03/22 08:22:24;;;;;;;5.35;1.92;;;11.70;99.90;;;11.69;100.00;97231.91;5043168;28;20044;-76
2023/03/22 08:24:52;;;;;;;5.13;2.00;;;11.80;99.90;;;12.19;100.00;97223.19;5040635;28;20574;-76
2023/03/22 08:27:20;;;;;;;4.32;1.90;;;12.50;99.90;;;12.14;100.00;97213.03;5043766;28;20117;-74
2023/03/22 08:29:47;;;;;;;3.65;1.73;;;13.20;99.90;;;12.65;100.00;97209.38;5040693;28;20098;-76
2023/03/22 08:32:16;;;;;;;6.50;1.90;;;13.40;99.90;;;12.71;100.00;97216.84;5043638;28;20067;-76
2023/03/22 08:34:44;;;;;;;5.30;1.67;;;13.40;99.90;;;12.76;100.00;97209.59;5039440;28;20044;-76
2023/03/22 08:37:12;;;;;;;5.90;1.70;;;13.40;99.90;;;12.30;100.00;97207.81;5043242;28;20048;-74
2023/03/22 08:39:42;;;;;;;4.15;1.52;;;13.00;99.90;;;13.15;100.00;97211.66;5044658;28;20081;-73
2023/03/22 08:42:09;;;;;;;4.80;1.40;;;13.20;99.90;;;12.81;100.00;97228.41;5041637;28;20591;-74
2023/03/22 08:44:36;;;;;;;5.65;1.30;;;13.10;99.90;;;12.53;100.00;97211.75;5043537;28;20940;-74
2023/03/22 08:47:04;;;;;;;3.60;1.40;;;13.10;99.90;;;13.13;100.00;97210.06;5040954;28;20135;-74
2023/03/22 08:49:31;;;;;;;5.53;1.02;;;13.40;99.90;;;12.64;100.00;97213.75;5040289;28;20491;-74
2023/03/22 08:51:58;;;;;;;3.80;1.20;;;13.30;99.90;;;12.46;100.00;97220.81;5040588;28;20148;-74
2023/03/22 08:54:31;;;;;;;3.78;1.48;;;12.90;99.90;;;12.03;100.00;97207.56;5043164;28;20049;-72
2023/03/22 08:56:59;;;;;;;4.78;1.10;;;12.50;99.90;;;11.69;100.00;97203.31;5041012;28;20045;-74
2023/03/22 08:59:26;;;;;;;4.05;1.10;;;12.40;99.90;;;11.45;100.00;97208.06;5043165;28;20044;-76
2023/03/22 09:01:53;;;;;;;2.78;0.93;;;12.20;99.90;;;11.58;100.00;97229.88;5044056;28;20055;-76
2023/03/22 09:04:21;;;;;;;3.60;0.80;;;12.10;99.90;;;11.95;100.00;97201.09;5038787;28;20523;-75
2023/03/22 09:06:49;;;;;;;2.20;0.70;;;12.10;99.90;;;12.18;100.00;97236.28;5042331;28;20463;-76
2023/03/22 09:09:16;;;;;;;2.60;0.90;;;12.40;99.90;;;12.69;100.00;97222.13;5044120;28;20134;-76
2023/03/22 09:11:43;;;;;;;2.33;0.80;;;13.10;99.90;;;12.93;100.00;97224.25;5040774;28;20136;-74
2023/03/22 09:14:10;;;;;;;3.72;1.10;;;13.20;99.90;;;12.72;100.00;97205.50;5043481;28;20426;-74
2023/03/22 09:16:38;;;;;;;4.95;1.10;;;13.00;99.90;;;12.86;100.00;97191.66;5043088;28;20441;-74
2023/03/22 09:19:05;;;;;;;3.78;0.95;;;12.80;99.90;;;12.87;100.00;97170.75;5045218;28;20055;-74
2023/03/22 09:21:32;;;;;;;3.30;1.25;;;13.00;99.90;;;12.52;100.00;97193.59;5041850;28;20076;-75
2023/03/22 09:23:59;;;;;;;2.38;0.85;;;13.00;99.90;;;12.33;100.00;97179.00;5042175;28;20040;-73
2023/03/22 09:26:27;;;;;;;3.40;0.95;;;12.60;99.90;;;12.06;100.00;97186.59;5037594;28;20060;-74
2023/03/22 09:28:54;;;;;;;2.47;1.00;;;12.60;99.90;;;12.18;100.00;97173.81;5041858;28;20148;-73
2023/03/22 09:31:22;;;;;;;3.63;0.90;;;12.60;99.90;;;11.95;100.00;97162.94;5045156;28;20064;-74
2023/03/22 09:33:49;;;;;;;2.25;1.05;;;12.70;99.90;;;12.76;100.00;97173.97;5028738;28;20435;-74
2023/03/22 09:36:17;;;;;;;7.55;1.10;;;12.80;99.90;;;13.22;100.00;97174.81;5040700;28;20150;-74
2023/03/22 09:38:45;;;;;;;2.67;1.00;;;13.20;99.90;;;13.45;100.00;97156.03;5043078;28;20546;-74
2023/03/22 09:41:18;;;;;;;4.53;1.20;;;13.60;99.90;;;13.92;100.00;97160.09;5039821;28;20053;-74
2023/03/22 09:44:00;;;;;;;2.08;0.95;;;14.10;99.90;;;13.29;100.00;97173.53;5041533;28;20128;-74
2023/03/22 09:46:36;;;;;;;2.63;0.85;;;13.80;99.90;;;13.25;100.00;97175.47;5056192;28;20092;-73
2023/03/22 09:49:31;;;;;;;2.30;1.00;;;13.40;99.90;;;13.48;100.00;97141.97;5041659;28;20063;-74
2023/03/22 09:52:16;;;;;;;2.72;0.90;;;13.80;99.90;;;14.21;100.00;97147.00;5040737;28;20044;-74
2023/03/22 09:54:46;;;;;;;4.00;1.10;;;14.00;99.90;;;13.61;100.00;97153.34;5044867;28;20140;-74
2023/03/22 09:57:36;;;;;;;4.22;1.10;;;14.40;99.90;;;14.25;100.00;97137.16;5047677;28;20060;-74
2023/03/22 10:00:35;;;;;;;1.83;0.73;;;14.10;99.90;;;13.77;100.00;97159.28;5046818;28;20140;-74
2023/03/22 10:03:40;;;;;;;2.50;0.90;;;13.70;99.90;;;14.21;100.00;97167.88;5055958;28;20052;-74
2023/03/22 10:06:15;;;;;;;4.28;1.20;;;14.00;99.90;;;14.41;100.00;97167.44;5061942;28;20053;-74
2023/03/22 10:08:51;;;;;;;2.85;1.00;;;13.90;99.90;;;13.49;100.00;97157.53;5031083;28;20443;-75
2023/03/22 10:11:48;;;;;;;3.88;1.13;;;14.00;99.90;;;13.63;100.00;97185.38;5043296;28;20055;-75
2023/03/22 10:14:41;;;;;;;1.73;0.75;;;14.30;99.90;;;13.17;100.00;97168.09;5046826;28;20138;-75
2023/03/22 10:17:17;;;;;;;3.05;0.80;;;13.80;99.90;;;12.87;100.00;97185.56;5031389;28;20076;-74
2023/03/22 10:20:23;;;;;;;4.22;0.98;;;13.40;99.90;;;12.96;100.00;97159.78;5026609;28;20049;-74
2023/03/22 10:22:52;;;;;;;2.38;0.88;;;13.50;99.90;;;13.17;100.00;97178.53;5032095;28;20132;-75
2023/03/22 10:25:33;;;;;;;2.05;0.88;;;13.60;99.90;;;13.43;100.00;97157.91;5047073;28;20474;-74
2023/03/22 10:28:01;;;;;;;1.77;0.63;;;13.90;99.90;;;13.45;100.00;97165.63;5055944;28;20090;-75
2023/03/22 10:30:35;;;;;;;3.03;0.80;;;13.90;99.90;;;13.27;100.00;97163.16;5043856;28;20530;-75
2023/03/22 10:33:16;;;;;;;2.67;0.90;;;13.80;99.90;;;13.32;100.00;97186.38;5046817;28;20546;-75
2023/03/22 10:35:44;;;;;;;2.45;0.80;;;13.50;99.90;;;13.25;100.00;97183.31;5031007;28;20140;-75
2023/03/22 10:38:21;;;;;;;2.35;0.90;;;13.60;99.90;;;13.11;100.00;97185.88;5043374;28;20190;-76
2023/03/22 10:40:52;;;;;;;3.40;0.90;;;13.60;99.90;;;13.28;100.00;97170.09;5057881;28;20076;-75